Avant — UTKO — position and weather

sailwx.info

Track history (hours):
 
Tides and Currents Weather Stations Pressure Air Temp Water Temp Dewpoint Dewpoint Depression Visibility Wind Speed Wind Dir Waves Ship Positions

Avant

Last reported at 2018-Jun-15 02:18 UTC. Time now 2018-Jun-24 01:04 UTC.
Position N 45°26' E 029°16'.
Warning: this ship's position is 8 days out of date.

Length 24 m; draft 2.1 m.

Type: Tug. MMSI: 272528000.

Date/timePositionNaut miles runAvg speedWind from/ knotsBaromVisibWave heightAir tempDewpointWater temp
2018-Jun-15 02:18N 45°26' E 029°16'0 0.0
2018-Jun-15 02:00N 45°26' E 029°16'0 0.0
2018-Jun-15 01:29N 45°26' E 029°16'0 0.0
2018-Jun-15 00:34N 45°26' E 029°16'0 0.1
2018-Jun-15 00:30N 45°26' E 029°16'0 0.0
2018-Jun-15 00:00N 45°26' E 029°16'0 0.0
2018-Jun-14 23:08N 45°26' E 029°16'0 0.0
2018-Jun-14 22:59N 45°26' E 029°16'0 0.0
2018-Jun-14 22:30N 45°26' E 029°16'0 0.0
2018-Jun-14 22:00N 45°26' E 029°16'0 0.0
2018-Jun-14 21:30N 45°26' E 029°16'0 0.0
2018-Jun-14 20:59N 45°26' E 029°16'24 1.5
2018-Jun-14 04:58N 45°18' E 029°48'0 0.0
2018-Jun-14 04:30N 45°18' E 029°48'0 0.0
2018-Jun-14 04:00N 45°18' E 029°48'0 0.0
2018-Jun-14 03:30N 45°18' E 029°48'0 0.0
2018-Jun-14 03:00N 45°18' E 029°48'0 0.0
2018-Jun-14 02:30N 45°18' E 029°48'0 0.0
2018-Jun-14 02:00N 45°18' E 029°48'0 0.0
2018-Jun-14 01:30N 45°18' E 029°48'0 0.0
2018-Jun-14 01:00N 45°18' E 029°48'0 0.9
2018-Jun-14 00:30N 45°18' E 029°48'4 8.5
2018-Jun-13 23:59N 45°21' E 029°52'510.6
2018-Jun-13 23:30N 45°25' E 029°57'510.5
2018-Jun-13 23:00N 45°30' E 030°01'510.4
2018-Jun-13 22:30N 45°34' E 030°05'510.2
2018-Jun-13 22:00N 45°38' E 030°10'510.3
2018-Jun-13 21:30N 45°42' E 030°15'710.2
2018-Jun-13 20:50N 45°48' E 030°20'410.4
2018-Jun-13 20:30N 45°50' E 030°23'810.5
2018-Jun-13 19:45N 45°57' E 030°28'310.8
2018-Jun-13 19:30N 45°60' E 030°30'510.5
2018-Jun-13 19:00N 46°05' E 030°33'510.5
2018-Jun-13 18:30N 46°09' E 030°36'610.5
2018-Jun-13 17:57N 46°14' E 030°40'610.5
2018-Jun-13 17:24N 46°19' E 030°45'410.4
2018-Jun-13 17:00N 46°23' E 030°47'510.2
2018-Jun-13 16:30N 46°28' E 030°48'3 5.2
2018-Jun-13 16:00N 46°29' E 030°45'0 0.0
2018-Jun-13 15:30N 46°29' E 030°45'0 0.0
2018-Jun-13 15:00N 46°29' E 030°45'0 0.0
2018-Jun-13 14:30N 46°29' E 030°45'0 0.0
2018-Jun-13 14:00N 46°29' E 030°45'0 0.0
2018-Jun-13 13:30N 46°29' E 030°45'0 0.0
2018-Jun-13 13:00N 46°29' E 030°45'0 0.0
2018-Jun-13 12:30N 46°29' E 030°45'0 0.0
2018-Jun-13 12:00N 46°29' E 030°45'0 0.0
2018-Jun-13 11:30N 46°29' E 030°45'0 0.0
2018-Jun-13 10:59N 46°29' E 030°45'0 0.0
2018-Jun-13 10:30N 46°29' E 030°45'0 0.0
2018-Jun-13 10:00N 46°29' E 030°45'0 0.0
2018-Jun-13 09:30N 46°29' E 030°45'0 0.0
2018-Jun-13 09:00N 46°29' E 030°45'0 0.0
2018-Jun-13 08:30N 46°29' E 030°45'0 0.0
2018-Jun-13 08:00N 46°29' E 030°45'0 0.0
2018-Jun-13 07:30N 46°29' E 030°45'0 0.0
2018-Jun-13 07:00N 46°29' E 030°45'0 0.0
2018-Jun-13 06:30N 46°29' E 030°45'0 0.0
2018-Jun-13 06:00N 46°29' E 030°45'0 0.0
2018-Jun-13 05:30N 46°29' E 030°45'0 0.0
2018-Jun-13 05:00N 46°29' E 030°45'0 0.0
2018-Jun-13 04:30N 46°29' E 030°45'0 0.0
2018-Jun-13 04:00N 46°29' E 030°45'0 0.0
2018-Jun-13 03:30N 46°29' E 030°45'0 0.0
2018-Jun-13 03:00N 46°29' E 030°45'0 0.0
2018-Jun-13 02:30N 46°29' E 030°45'0 0.0
2018-Jun-13 02:00N 46°29' E 030°45'0 0.0
2018-Jun-13 01:30N 46°29' E 030°45'0 0.0
2018-Jun-13 01:00N 46°29' E 030°45'0 0.0
2018-Jun-13 00:30N 46°29' E 030°45'0 0.0
2018-Jun-13 00:00N 46°29' E 030°45'0 0.0
2018-Jun-12 23:30N 46°29' E 030°45'0 0.0
2018-Jun-12 23:00N 46°29' E 030°45'0 0.0
2018-Jun-12 22:30N 46°29' E 030°45'0 0.0
2018-Jun-12 22:00N 46°29' E 030°45'0 0.0
2018-Jun-12 21:30N 46°29' E 030°45'0 0.0
2018-Jun-12 21:00N 46°29' E 030°45'0 0.0
2018-Jun-12 20:30N 46°29' E 030°45'0 0.0
2018-Jun-12 20:00N 46°29' E 030°45'0 0.0
2018-Jun-12 19:30N 46°29' E 030°45'0 0.0
2018-Jun-12 19:00N 46°29' E 030°45'0 0.0
2018-Jun-12 18:29N 46°29' E 030°45'0 0.0
2018-Jun-12 17:59N 46°29' E 030°45'0 0.0
2018-Jun-12 17:30N 46°29' E 030°45'0 0.0
2018-Jun-12 17:00N 46°29' E 030°45'0 0.0
2018-Jun-12 16:30N 46°29' E 030°45'0 0.0
2018-Jun-12 16:00N 46°29' E 030°45'0 0.0
2018-Jun-12 15:30N 46°29' E 030°45'0 0.0
2018-Jun-12 15:00N 46°29' E 030°45'0 0.0
2018-Jun-12 14:30N 46°29' E 030°45'0 0.0
2018-Jun-12 14:00N 46°29' E 030°45'0 0.0
2018-Jun-12 13:30N 46°29' E 030°45'0 0.0
2018-Jun-12 13:00N 46°29' E 030°45'0 0.0
2018-Jun-12 12:30N 46°29' E 030°45'0 0.5
2018-Jun-12 12:00N 46°30' E 030°45'0 0.6
2018-Jun-12 11:30N 46°29' E 030°45'0 0.0
2018-Jun-12 11:00N 46°29' E 030°45'0 0.0
2018-Jun-12 10:30N 46°29' E 030°45'0 0.0
2018-Jun-12 10:00N 46°29' E 030°45'0 0.0
2018-Jun-12 09:30N 46°29' E 030°45'0 0.0
2018-Jun-12 09:00N 46°29' E 030°45'0 0.0
2018-Jun-12 08:30N 46°29' E 030°45'0 0.0
2018-Jun-12 08:00N 46°29' E 030°45'0 0.0
2018-Jun-12 07:30N 46°29' E 030°45'0 0.0
2018-Jun-12 07:00N 46°29' E 030°45'0 0.0
2018-Jun-12 06:30N 46°29' E 030°45'0 0.0
2018-Jun-12 06:00N 46°29' E 030°45'0 0.0
2018-Jun-12 05:30N 46°29' E 030°45'0 0.0
2018-Jun-12 05:00N 46°29' E 030°45'0 0.0
2018-Jun-12 04:30N 46°29' E 030°45'0 0.0
2018-Jun-12 04:00N 46°29' E 030°45'0 0.0
2018-Jun-12 03:30N 46°29' E 030°45'0 0.0
2018-Jun-12 03:00N 46°29' E 030°45'0 0.0
2018-Jun-12 02:30N 46°29' E 030°45'0 0.0
2018-Jun-12 02:00N 46°29' E 030°45'0 0.0
2018-Jun-12 01:30N 46°29' E 030°45'0 0.0
2018-Jun-12 01:00N 46°29' E 030°45'0 0.0
2018-Jun-12 00:30N 46°29' E 030°45'0 0.0
2018-Jun-12 00:00N 46°29' E 030°45'0 0.0
2018-Jun-11 23:30N 46°29' E 030°45'0 0.0
2018-Jun-11 23:00N 46°29' E 030°45'0 0.0
2018-Jun-11 22:30N 46°29' E 030°45'0 0.0
2018-Jun-11 22:00N 46°29' E 030°45'0 0.0
2018-Jun-11 21:30N 46°29' E 030°45'0 0.0
2018-Jun-11 21:00N 46°29' E 030°45'0 0.0
2018-Jun-11 20:30N 46°29' E 030°45'0 0.0
2018-Jun-11 20:00N 46°29' E 030°45'0 0.0
2018-Jun-11 19:28N 46°29' E 030°45'0 0.0
2018-Jun-11 19:00N 46°29' E 030°45'0 0.0
2018-Jun-11 18:30N 46°29' E 030°45'0 0.0
2018-Jun-11 18:00N 46°29' E 030°45'0 0.0
2018-Jun-11 17:30N 46°29' E 030°45'0 0.0
2018-Jun-11 17:00N 46°29' E 030°45'0 0.0
2018-Jun-11 16:30N 46°29' E 030°45'0 0.0
2018-Jun-11 16:00N 46°29' E 030°45'0 0.0
2018-Jun-11 15:30N 46°29' E 030°45'0 0.0
2018-Jun-11 15:00N 46°29' E 030°45'0 0.0
2018-Jun-11 14:30N 46°29' E 030°45'0 0.0
2018-Jun-11 14:00N 46°29' E 030°45'0 0.0
2018-Jun-11 13:30N 46°29' E 030°45'0 0.0
2018-Jun-11 13:00N 46°29' E 030°45'0 0.0
2018-Jun-11 12:30N 46°29' E 030°45'0 0.0
2018-Jun-11 12:00N 46°29' E 030°45'0 0.0
2018-Jun-11 11:30N 46°29' E 030°45'0 0.0
2018-Jun-11 11:00N 46°29' E 030°45'0 0.0
2018-Jun-11 10:30N 46°29' E 030°45'0 0.0
2018-Jun-11 10:00N 46°29' E 030°45'0 0.0
2018-Jun-11 09:30N 46°29' E 030°45'0 0.0
2018-Jun-11 09:00N 46°29' E 030°45'0 0.0
2018-Jun-11 08:30N 46°29' E 030°45'0 0.0
2018-Jun-11 08:00N 46°29' E 030°45'0 0.0
2018-Jun-11 07:30N 46°29' E 030°45'0 0.0
2018-Jun-11 07:00N 46°29' E 030°45'0 0.0
2018-Jun-11 06:30N 46°29' E 030°45'0 0.0
2018-Jun-11 06:00N 46°29' E 030°45'0 0.0
2018-Jun-11 05:30N 46°29' E 030°45'0 0.0
2018-Jun-11 05:00N 46°29' E 030°45'0 0.0
2018-Jun-11 04:30N 46°29' E 030°45'0 0.0
2018-Jun-11 04:00N 46°29' E 030°45'0 0.0
2018-Jun-11 03:30N 46°29' E 030°45'0 0.0
2018-Jun-11 03:00N 46°29' E 030°45'0 0.0
2018-Jun-11 02:30N 46°29' E 030°45'0 0.0
2018-Jun-11 02:00N 46°29' E 030°45'0 0.0
2018-Jun-11 01:30N 46°29' E 030°45'0 0.0
2018-Jun-11 01:00N 46°29' E 030°45'0 0.0
2018-Jun-11 00:30N 46°29' E 030°45'0 0.0
2018-Jun-11 00:00N 46°29' E 030°45'0 0.0
2018-Jun-10 23:30N 46°29' E 030°45'0 0.0
2018-Jun-10 23:00N 46°29' E 030°45'0 0.0
2018-Jun-10 22:29N 46°29' E 030°45'0 0.0
2018-Jun-10 22:00N 46°29' E 030°45'0 0.0
2018-Jun-10 21:29N 46°29' E 030°45'0 0.0
2018-Jun-10 21:00N 46°29' E 030°45'0 0.0
2018-Jun-10 20:30N 46°29' E 030°45'0 0.0
2018-Jun-10 20:00N 46°29' E 030°45'0 0.0
2018-Jun-10 19:30N 46°29' E 030°45'0 0.0
2018-Jun-10 19:00N 46°29' E 030°45'0 0.0
2018-Jun-10 18:30N 46°29' E 030°45'0 0.0
2018-Jun-10 18:00N 46°29' E 030°45'0 0.0
2018-Jun-10 17:30N 46°29' E 030°45'0 0.0
2018-Jun-10 17:00N 46°29' E 030°45'0 0.0
2018-Jun-10 16:30N 46°29' E 030°45'0 0.0
2018-Jun-10 16:00N 46°29' E 030°45'0 0.0
2018-Jun-10 15:30N 46°29' E 030°45'0 0.0
2018-Jun-10 15:00N 46°29' E 030°45'0 0.0
2018-Jun-10 14:30N 46°29' E 030°45'0 0.0
2018-Jun-10 13:30N 46°29' E 030°45'0 0.1
2018-Jun-10 13:00N 46°29' E 030°45'0 0.0
2018-Jun-10 12:30N 46°29' E 030°45'0 0.0
2018-Jun-10 12:00N 46°29' E 030°45'0 0.0
2018-Jun-10 11:30N 46°29' E 030°45'0 0.0
2018-Jun-10 11:00N 46°29' E 030°45'0 0.0
2018-Jun-10 10:30N 46°29' E 030°45'0 0.0
2018-Jun-10 10:00N 46°29' E 030°45'0 0.0
2018-Jun-10 09:29N 46°29' E 030°45'0 0.0
2018-Jun-10 09:00N 46°29' E 030°45'0 0.0
2018-Jun-10 08:30N 46°29' E 030°45'0 0.0
2018-Jun-10 08:00N 46°29' E 030°45'0 0.0
2018-Jun-10 07:30N 46°29' E 030°45'0 0.0
2018-Jun-10 07:00N 46°29' E 030°45'0 0.0
2018-Jun-10 06:30N 46°29' E 030°45'0 0.0
2018-Jun-10 06:00N 46°29' E 030°45'0 0.0
2018-Jun-10 05:30N 46°29' E 030°45'0 0.0
2018-Jun-10 05:00N 46°29' E 030°45'0 0.0
2018-Jun-10 04:30N 46°29' E 030°45'0 0.0
2018-Jun-10 04:00N 46°29' E 030°45'0 0.0
2018-Jun-10 03:30N 46°29' E 030°45'0 0.0
2018-Jun-10 03:00N 46°29' E 030°45'0 0.0
2018-Jun-10 02:30N 46°29' E 030°45'0 0.0
2018-Jun-10 02:00N 46°29' E 030°45'0 0.0
2018-Jun-10 01:30N 46°29' E 030°45'0 0.0
2018-Jun-10 01:00N 46°29' E 030°45'0 0.0
2018-Jun-10 00:30N 46°29' E 030°45'0 0.0
2018-Jun-10 00:00N 46°29' E 030°45'0 0.0
2018-Jun-09 23:30N 46°29' E 030°45'0 0.0
2018-Jun-09 23:00N 46°29' E 030°45'0 0.0
2018-Jun-09 22:30N 46°29' E 030°45'0 0.0
2018-Jun-09 21:59N 46°29' E 030°45'0 0.1
2018-Jun-09 21:30N 46°29' E 030°45'0 0.0
2018-Jun-09 21:00N 46°29' E 030°45'0 0.0
2018-Jun-09 20:30N 46°29' E 030°45'0 0.0
2018-Jun-09 20:00N 46°29' E 030°45'0 0.0
2018-Jun-09 19:30N 46°29' E 030°45'0 0.0
2018-Jun-09 19:00N 46°29' E 030°45'0 0.0
2018-Jun-09 18:30N 46°29' E 030°45'0 0.1
2018-Jun-09 18:00N 46°29' E 030°45'0 0.1
2018-Jun-09 17:30N 46°29' E 030°45'0 0.0
2018-Jun-09 17:00N 46°29' E 030°45'0 0.0
2018-Jun-09 16:30N 46°29' E 030°45'0 0.0
2018-Jun-09 16:00N 46°29' E 030°45'0 0.0
2018-Jun-09 15:30N 46°29' E 030°45'0 0.0
2018-Jun-09 14:30N 46°29' E 030°45'0 0.0
2018-Jun-09 14:00N 46°29' E 030°45'0 0.0
2018-Jun-09 13:30N 46°29' E 030°45'0 0.0
2018-Jun-09 13:00N 46°29' E 030°45'0 0.0
2018-Jun-09 12:30N 46°29' E 030°45'0 0.0
2018-Jun-09 11:59N 46°29' E 030°45'0 0.0
2018-Jun-09 11:30N 46°29' E 030°45'0 0.0
2018-Jun-09 11:00N 46°29' E 030°45'0 0.0
2018-Jun-09 10:30N 46°29' E 030°45'0 0.0
2018-Jun-09 10:00N 46°29' E 030°45'0 0.0
2018-Jun-09 09:30N 46°29' E 030°45'0 0.0
2018-Jun-09 09:00N 46°29' E 030°45'0 0.0
2018-Jun-09 08:30N 46°29' E 030°45'0 0.0
2018-Jun-09 08:00N 46°29' E 030°45'0 0.0
2018-Jun-09 07:30N 46°29' E 030°45'0 0.0
2018-Jun-09 07:00N 46°29' E 030°45'0 0.0
2018-Jun-09 06:30N 46°29' E 030°45'0 0.0
2018-Jun-09 06:00N 46°29' E 030°45'0 0.0
2018-Jun-09 05:30N 46°29' E 030°45'0 0.0
2018-Jun-09 05:00N 46°29' E 030°45'0 0.0
2018-Jun-09 04:30N 46°29' E 030°45'0 0.0
2018-Jun-09 04:00N 46°29' E 030°45'0 0.0
2018-Jun-09 03:30N 46°29' E 030°45'0 0.0
2018-Jun-09 03:00N 46°29' E 030°45'0 0.0
2018-Jun-09 02:30N 46°29' E 030°45'0 0.0
2018-Jun-09 02:00N 46°29' E 030°45'0 0.0
2018-Jun-09 01:30N 46°29' E 030°45'0 0.0
2018-Jun-09 01:00N 46°29' E 030°45'0 0.0
2018-Jun-09 00:30N 46°29' E 030°45'0 0.0
2018-Jun-09 00:00N 46°29' E 030°45'0 0.0
2018-Jun-08 23:30N 46°29' E 030°45'0 0.0
2018-Jun-08 23:00N 46°29' E 030°45'0 0.0
2018-Jun-08 22:30N 46°29' E 030°45'0 0.0
2018-Jun-08 22:00N 46°29' E 030°45'0 0.0
2018-Jun-08 21:30N 46°29' E 030°45'0 0.0
2018-Jun-08 21:00N 46°29' E 030°45'0 0.0
2018-Jun-08 20:30N 46°29' E 030°45'0 0.0
2018-Jun-08 20:00N 46°29' E 030°45'0 0.0
2018-Jun-08 19:30N 46°29' E 030°45'0 0.0
2018-Jun-08 19:00N 46°29' E 030°45'0 0.0
2018-Jun-08 18:30N 46°29' E 030°45'0 0.0
2018-Jun-08 18:00N 46°29' E 030°45'1 1.2
2018-Jun-08 17:30N 46°30' E 030°45'1 1.2
2018-Jun-08 17:00N 46°29' E 030°45'0 0.0
2018-Jun-08 16:30N 46°29' E 030°45'0 0.0
2018-Jun-08 16:00N 46°29' E 030°45'0 0.0
2018-Jun-08 15:31N 46°29' E 030°45'0 0.0
2018-Jun-08 15:01N 46°29' E 030°45'0 0.0
2018-Jun-08 14:31N 46°29' E 030°45'0 0.0
2018-Jun-08 14:00N 46°29' E 030°45'0 0.0
2018-Jun-08 13:30N 46°29' E 030°45'0 0.0
2018-Jun-08 13:01N 46°29' E 030°45'0 0.0
2018-Jun-08 12:30N 46°29' E 030°45'0 0.0
2018-Jun-08 12:00N 46°29' E 030°45'0 0.0
2018-Jun-08 11:31N 46°29' E 030°45'0 0.0
2018-Jun-08 11:00N 46°29' E 030°45'0 0.0
2018-Jun-08 10:31N 46°29' E 030°45'0 0.0
2018-Jun-08 10:00N 46°29' E 030°45'0 0.0
2018-Jun-08 09:30N 46°29' E 030°45'0 0.0
2018-Jun-08 09:01N 46°29' E 030°45'0 0.0
2018-Jun-08 08:30N 46°29' E 030°45'0 0.0
2018-Jun-08 08:01N 46°29' E 030°45'0 0.0
2018-Jun-08 07:30N 46°29' E 030°45'0 0.0
2018-Jun-08 07:00N 46°29' E 030°45'0 0.0
2018-Jun-08 06:30N 46°29' E 030°45'0 0.0
2018-Jun-08 06:00N 46°29' E 030°45'0 0.0
2018-Jun-08 05:31N 46°29' E 030°45'0 0.0
2018-Jun-08 05:01N 46°29' E 030°45'0 0.0
2018-Jun-08 04:30N 46°29' E 030°45'0 0.0
2018-Jun-08 04:00N 46°29' E 030°45'0 0.0
2018-Jun-08 03:30N 46°29' E 030°45'0 0.0
2018-Jun-08 03:00N 46°29' E 030°45'0 0.0
2018-Jun-08 02:29N 46°29' E 030°45'0 0.0
2018-Jun-08 02:01N 46°29' E 030°45'0 0.0
2018-Jun-08 01:30N 46°29' E 030°45'0 0.0
2018-Jun-08 01:01N 46°29' E 030°45'0 0.0
2018-Jun-08 00:30N 46°29' E 030°45'0 0.0
2018-Jun-08 00:00N 46°29' E 030°45'0 0.1
2018-Jun-07 23:30N 46°29' E 030°45'0 0.0
2018-Jun-07 23:01N 46°29' E 030°45'0 0.0
2018-Jun-07 22:30N 46°29' E 030°45'0 0.0
2018-Jun-07 22:00N 46°29' E 030°45'0 0.1
2018-Jun-07 21:30N 46°29' E 030°45'0 0.1
2018-Jun-07 21:00N 46°29' E 030°45'0 0.0
2018-Jun-07 20:30N 46°29' E 030°45'0 0.0
2018-Jun-07 20:00N 46°29' E 030°45'0 0.0
2018-Jun-07 19:30N 46°29' E 030°45'0 0.0
2018-Jun-07 19:00N 46°29' E 030°45'0 0.0
2018-Jun-07 18:31N 46°29' E 030°45'0 0.0
2018-Jun-07 18:00N 46°29' E 030°45'0 0.0
2018-Jun-07 17:30N 46°29' E 030°45'0 0.0
2018-Jun-07 17:00N 46°29' E 030°45'0 0.0
2018-Jun-07 16:30N 46°29' E 030°45'0 0.0
2018-Jun-07 16:01N 46°29' E 030°45'0 0.0
2018-Jun-07 15:30N 46°29' E 030°45'0 0.0
2018-Jun-07 15:00N 46°29' E 030°45'0 0.0
2018-Jun-07 14:30N 46°29' E 030°45'0 0.0
2018-Jun-07 14:00N 46°29' E 030°45'0 0.0
2018-Jun-07 13:31N 46°29' E 030°45'0 0.0
2018-Jun-07 13:01N 46°29' E 030°45'0 0.0
2018-Jun-07 12:31N 46°29' E 030°45'0 0.0
2018-Jun-07 12:00N 46°29' E 030°45'0 0.0
2018-Jun-07 11:30N 46°29' E 030°45'0 0.0
2018-Jun-07 11:01N 46°29' E 030°45'0 0.0
2018-Jun-07 10:30N 46°29' E 030°45'0 0.0
2018-Jun-07 10:00N 46°29' E 030°45'0 0.0
2018-Jun-07 09:30N 46°29' E 030°45'0 0.0
2018-Jun-07 09:01N 46°29' E 030°45'0 0.0
2018-Jun-07 08:31N 46°29' E 030°45'0 0.0
2018-Jun-07 08:00N 46°29' E 030°45'0 0.0
2018-Jun-07 07:30N 46°29' E 030°45'0 0.0
2018-Jun-07 06:59N 46°29' E 030°45'0 0.0
2018-Jun-07 06:30N 46°29' E 030°45'0 0.0
2018-Jun-07 06:01N 46°29' E 030°45'0 0.0
2018-Jun-07 05:31N 46°29' E 030°45'0 0.0
2018-Jun-07 05:00N 46°29' E 030°45'0 0.0
2018-Jun-07 04:30N 46°29' E 030°45'0 0.0
2018-Jun-07 04:00N 46°29' E 030°45'0 0.0
2018-Jun-07 03:30N 46°29' E 030°45'0 0.0
2018-Jun-07 03:01N 46°29' E 030°45'0 0.0
2018-Jun-07 02:30N 46°29' E 030°45'0 0.0
2018-Jun-07 02:00N 46°29' E 030°45'0 0.0
2018-Jun-07 01:30N 46°29' E 030°45'0 0.0
2018-Jun-07 01:00N 46°29' E 030°45'0 0.0
2018-Jun-07 00:30N 46°29' E 030°45'0 0.0
2018-Jun-07 00:00N 46°29' E 030°45'0 0.0
2018-Jun-06 23:31N 46°29' E 030°45'0 0.0
2018-Jun-06 23:00N 46°29' E 030°45'0 0.0
2018-Jun-06 22:31N 46°29' E 030°45'0 0.0
2018-Jun-06 22:01N 46°29' E 030°45'0 0.0
2018-Jun-06 21:31N 46°29' E 030°45'0 0.0
2018-Jun-06 21:01N 46°29' E 030°45'0 0.0
2018-Jun-06 20:31N 46°29' E 030°45'0 0.0
2018-Jun-06 20:01N 46°29' E 030°45'0 0.0
2018-Jun-06 19:30N 46°29' E 030°45'0 0.0
2018-Jun-06 19:01N 46°29' E 030°45'0 0.0
2018-Jun-06 18:30N 46°29' E 030°45'0 0.0
2018-Jun-06 18:00N 46°29' E 030°45'0 0.0
2018-Jun-06 17:30N 46°29' E 030°45'0 0.0
2018-Jun-06 17:00N 46°29' E 030°45'0 0.0
2018-Jun-06 16:30N 46°29' E 030°45'0 0.0
2018-Jun-06 16:00N 46°29' E 030°45'0 0.0
2018-Jun-06 15:30N 46°29' E 030°45'0 0.0
2018-Jun-06 15:00N 46°29' E 030°45'0 0.0
2018-Jun-06 14:30N 46°29' E 030°45'0 0.0
2018-Jun-06 14:01N 46°29' E 030°45'0 0.0
2018-Jun-06 13:30N 46°29' E 030°45'0 0.0
2018-Jun-06 13:01N 46°29' E 030°45'0 0.0
2018-Jun-06 12:30N 46°29' E 030°45'0 0.0
2018-Jun-06 12:01N 46°29' E 030°45'0 0.0
2018-Jun-06 11:30N 46°29' E 030°45'0 0.0
2018-Jun-06 11:01N 46°29' E 030°45'0 0.0
2018-Jun-06 10:31N 46°29' E 030°45'0 0.0
2018-Jun-06 10:01N 46°29' E 030°45'0 0.0
2018-Jun-06 09:30N 46°29' E 030°45'0 0.0
2018-Jun-06 09:00N 46°29' E 030°45'0 0.0
2018-Jun-06 08:30N 46°29' E 030°45'0 0.0
2018-Jun-06 08:00N 46°29' E 030°45'0 0.0
2018-Jun-06 07:30N 46°29' E 030°45'0 0.0
2018-Jun-06 07:01N 46°29' E 030°45'0 0.0
2018-Jun-06 06:30N 46°29' E 030°45'0 0.0
2018-Jun-06 06:00N 46°29' E 030°45'0 0.0
2018-Jun-06 05:31N 46°29' E 030°45'0 0.0
2018-Jun-06 05:00N 46°29' E 030°45'0 0.0
2018-Jun-06 04:30N 46°29' E 030°45'0 0.0
2018-Jun-06 04:00N 46°29' E 030°45'0 0.0
2018-Jun-06 03:31N 46°29' E 030°45'0 0.0
2018-Jun-06 03:00N 46°29' E 030°45'0 0.0
2018-Jun-06 02:30N 46°29' E 030°45'0 0.0
2018-Jun-06 02:00N 46°29' E 030°45'0 0.0
2018-Jun-06 01:31N 46°29' E 030°45'0 0.0
2018-Jun-06 01:00N 46°29' E 030°45'0 0.0
2018-Jun-06 00:30N 46°29' E 030°45'0 0.0
2018-Jun-06 00:00N 46°29' E 030°45'0 0.0
2018-Jun-05 23:31N 46°29' E 030°45'0 0.0
2018-Jun-05 23:00N 46°29' E 030°45'0 0.0
2018-Jun-05 22:31N 46°29' E 030°45'0 0.0
2018-Jun-05 22:00N 46°29' E 030°45'0 0.0
2018-Jun-05 21:30N 46°29' E 030°45'0 0.0
2018-Jun-05 21:00N 46°29' E 030°45'0 0.0
2018-Jun-05 20:30N 46°29' E 030°45'0 0.0
2018-Jun-05 20:00N 46°29' E 030°45'0 0.0
2018-Jun-05 19:30N 46°29' E 030°45'0 0.0
2018-Jun-05 19:00N 46°29' E 030°45'0 0.0
2018-Jun-05 18:30N 46°29' E 030°45'0 0.0
2018-Jun-05 18:00N 46°29' E 030°45'0 0.0
2018-Jun-05 17:31N 46°29' E 030°45'0 0.0
2018-Jun-05 17:00N 46°29' E 030°45'0 0.0
2018-Jun-05 16:31N 46°29' E 030°45'0 0.0
2018-Jun-05 16:00N 46°29' E 030°45'0 0.0
2018-Jun-05 15:30N 46°29' E 030°45'0 0.0
2018-Jun-05 15:01N 46°29' E 030°45'0 0.0
2018-Jun-05 14:29N 46°29' E 030°45'0 0.0
2018-Jun-05 14:00N 46°29' E 030°45'0 0.0
2018-Jun-05 13:31N 46°29' E 030°45'0 0.0
2018-Jun-05 13:00N 46°29' E 030°45'0 0.0
2018-Jun-05 12:31N 46°29' E 030°45'0 0.0
2018-Jun-05 12:01N 46°29' E 030°45'0 0.0
2018-Jun-05 11:31N 46°29' E 030°45'0 0.0
2018-Jun-05 11:00N 46°29' E 030°45'0 0.0
2018-Jun-05 10:31N 46°29' E 030°45'0 0.0
2018-Jun-05 10:00N 46°29' E 030°45'0 0.0
2018-Jun-05 09:30N 46°29' E 030°45'0 0.0
2018-Jun-05 09:00N 46°29' E 030°45'0 0.0
2018-Jun-05 08:30N 46°29' E 030°45'0 0.0
2018-Jun-05 08:01N 46°29' E 030°45'0 0.0
2018-Jun-05 07:31N 46°29' E 030°45'0 0.0
2018-Jun-05 07:00N 46°29' E 030°45'0 0.0
2018-Jun-05 06:30N 46°29' E 030°45'0 0.0
2018-Jun-05 06:00N 46°29' E 030°45'0 0.0
2018-Jun-05 05:31N 46°29' E 030°45'0 0.0
2018-Jun-05 05:01N 46°29' E 030°45'0 0.0
2018-Jun-05 04:31N 46°29' E 030°45'0 0.0
2018-Jun-05 04:00N 46°29' E 030°45'0 0.0
2018-Jun-05 03:30N 46°29' E 030°45'0 0.0
2018-Jun-05 03:00N 46°29' E 030°45'0 0.0
2018-Jun-05 02:30N 46°29' E 030°45'  
Track history (hours):
 
Tides and Currents Weather Stations Pressure Air Temp Water Temp Dewpoint Dewpoint Depression Visibility Wind Speed Wind Dir Waves Ship Positions

Avant

Last reported at 2018-Jun-15 02:18 UTC. Time now 2018-Jun-24 01:04 UTC.
Position N 45°26' E 029°16'.
Warning: this ship's position is 8 days out of date.

Length 24 m; draft 2.1 m.

Type: Tug. MMSI: 272528000.

Date/timePositionNaut miles runAvg speedWind from/ knotsBaromVisibWave heightAir tempDewpointWater temp
2018-Jun-15 02:18N 45°26' E 029°16'0 0.0
2018-Jun-15 02:00N 45°26' E 029°16'0 0.0
2018-Jun-15 01:29N 45°26' E 029°16'0 0.0
2018-Jun-15 00:34N 45°26' E 029°16'0 0.1
2018-Jun-15 00:30N 45°26' E 029°16'0 0.0
2018-Jun-15 00:00N 45°26' E 029°16'0 0.0
2018-Jun-14 23:08N 45°26' E 029°16'0 0.0
2018-Jun-14 22:59N 45°26' E 029°16'0 0.0
2018-Jun-14 22:30N 45°26' E 029°16'0 0.0
2018-Jun-14 22:00N 45°26' E 029°16'0 0.0
2018-Jun-14 21:30N 45°26' E 029°16'0 0.0
2018-Jun-14 20:59N 45°26' E 029°16'24 1.5
2018-Jun-14 04:58N 45°18' E 029°48'0 0.0
2018-Jun-14 04:30N 45°18' E 029°48'0 0.0
2018-Jun-14 04:00N 45°18' E 029°48'0 0.0
2018-Jun-14 03:30N 45°18' E 029°48'0 0.0
2018-Jun-14 03:00N 45°18' E 029°48'0 0.0
2018-Jun-14 02:30N 45°18' E 029°48'0 0.0
2018-Jun-14 02:00N 45°18' E 029°48'0 0.0
2018-Jun-14 01:30N 45°18' E 029°48'0 0.0
2018-Jun-14 01:00N 45°18' E 029°48'0 0.9
2018-Jun-14 00:30N 45°18' E 029°48'4 8.5
2018-Jun-13 23:59N 45°21' E 029°52'510.6
2018-Jun-13 23:30N 45°25' E 029°57'510.5
2018-Jun-13 23:00N 45°30' E 030°01'510.4
2018-Jun-13 22:30N 45°34' E 030°05'510.2
2018-Jun-13 22:00N 45°38' E 030°10'510.3
2018-Jun-13 21:30N 45°42' E 030°15'710.2
2018-Jun-13 20:50N 45°48' E 030°20'410.4
2018-Jun-13 20:30N 45°50' E 030°23'810.5
2018-Jun-13 19:45N 45°57' E 030°28'310.8
2018-Jun-13 19:30N 45°60' E 030°30'510.5
2018-Jun-13 19:00N 46°05' E 030°33'510.5
2018-Jun-13 18:30N 46°09' E 030°36'610.5
2018-Jun-13 17:57N 46°14' E 030°40'610.5
2018-Jun-13 17:24N 46°19' E 030°45'410.4
2018-Jun-13 17:00N 46°23' E 030°47'510.2
2018-Jun-13 16:30N 46°28' E 030°48'3 5.2
2018-Jun-13 16:00N 46°29' E 030°45'0 0.0
2018-Jun-13 15:30N 46°29' E 030°45'0 0.0
2018-Jun-13 15:00N 46°29' E 030°45'0 0.0
2018-Jun-13 14:30N 46°29' E 030°45'0 0.0
2018-Jun-13 14:00N 46°29' E 030°45'0 0.0
2018-Jun-13 13:30N 46°29' E 030°45'0 0.0
2018-Jun-13 13:00N 46°29' E 030°45'0 0.0
2018-Jun-13 12:30N 46°29' E 030°45'0 0.0
2018-Jun-13 12:00N 46°29' E 030°45'0 0.0
2018-Jun-13 11:30N 46°29' E 030°45'0 0.0
2018-Jun-13 10:59N 46°29' E 030°45'0 0.0
2018-Jun-13 10:30N 46°29' E 030°45'0 0.0
2018-Jun-13 10:00N 46°29' E 030°45'0 0.0
2018-Jun-13 09:30N 46°29' E 030°45'0 0.0
2018-Jun-13 09:00N 46°29' E 030°45'0 0.0
2018-Jun-13 08:30N 46°29' E 030°45'0 0.0
2018-Jun-13 08:00N 46°29' E 030°45'0 0.0
2018-Jun-13 07:30N 46°29' E 030°45'0 0.0
2018-Jun-13 07:00N 46°29' E 030°45'0 0.0
2018-Jun-13 06:30N 46°29' E 030°45'0 0.0
2018-Jun-13 06:00N 46°29' E 030°45'0 0.0
2018-Jun-13 05:30N 46°29' E 030°45'0 0.0
2018-Jun-13 05:00N 46°29' E 030°45'0 0.0
2018-Jun-13 04:30N 46°29' E 030°45'0 0.0
2018-Jun-13 04:00N 46°29' E 030°45'0 0.0
2018-Jun-13 03:30N 46°29' E 030°45'0 0.0
2018-Jun-13 03:00N 46°29' E 030°45'0 0.0
2018-Jun-13 02:30N 46°29' E 030°45'0 0.0
2018-Jun-13 02:00N 46°29' E 030°45'0 0.0
2018-Jun-13 01:30N 46°29' E 030°45'0 0.0
2018-Jun-13 01:00N 46°29' E 030°45'0 0.0
2018-Jun-13 00:30N 46°29' E 030°45'0 0.0
2018-Jun-13 00:00N 46°29' E 030°45'0 0.0
2018-Jun-12 23:30N 46°29' E 030°45'0 0.0
2018-Jun-12 23:00N 46°29' E 030°45'0 0.0
2018-Jun-12 22:30N 46°29' E 030°45'0 0.0
2018-Jun-12 22:00N 46°29' E 030°45'0 0.0
2018-Jun-12 21:30N 46°29' E 030°45'0 0.0
2018-Jun-12 21:00N 46°29' E 030°45'0 0.0
2018-Jun-12 20:30N 46°29' E 030°45'0 0.0
2018-Jun-12 20:00N 46°29' E 030°45'0 0.0
2018-Jun-12 19:30N 46°29' E 030°45'0 0.0
2018-Jun-12 19:00N 46°29' E 030°45'0 0.0
2018-Jun-12 18:29N 46°29' E 030°45'0 0.0
2018-Jun-12 17:59N 46°29' E 030°45'0 0.0
2018-Jun-12 17:30N 46°29' E 030°45'0 0.0
2018-Jun-12 17:00N 46°29' E 030°45'0 0.0
2018-Jun-12 16:30N 46°29' E 030°45'0 0.0
2018-Jun-12 16:00N 46°29' E 030°45'0 0.0
2018-Jun-12 15:30N 46°29' E 030°45'0 0.0
2018-Jun-12 15:00N 46°29' E 030°45'0 0.0
2018-Jun-12 14:30N 46°29' E 030°45'0 0.0
2018-Jun-12 14:00N 46°29' E 030°45'0 0.0
2018-Jun-12 13:30N 46°29' E 030°45'0 0.0
2018-Jun-12 13:00N 46°29' E 030°45'0 0.0
2018-Jun-12 12:30N 46°29' E 030°45'0 0.5
2018-Jun-12 12:00N 46°30' E 030°45'0 0.6
2018-Jun-12 11:30N 46°29' E 030°45'0 0.0
2018-Jun-12 11:00N 46°29' E 030°45'0 0.0
2018-Jun-12 10:30N 46°29' E 030°45'0 0.0
2018-Jun-12 10:00N 46°29' E 030°45'0 0.0
2018-Jun-12 09:30N 46°29' E 030°45'0 0.0
2018-Jun-12 09:00N 46°29' E 030°45'0 0.0
2018-Jun-12 08:30N 46°29' E 030°45'0 0.0
2018-Jun-12 08:00N 46°29' E 030°45'0 0.0
2018-Jun-12 07:30N 46°29' E 030°45'0 0.0
2018-Jun-12 07:00N 46°29' E 030°45'0 0.0
2018-Jun-12 06:30N 46°29' E 030°45'0 0.0
2018-Jun-12 06:00N 46°29' E 030°45'0 0.0
2018-Jun-12 05:30N 46°29' E 030°45'0 0.0
2018-Jun-12 05:00N 46°29' E 030°45'0 0.0
2018-Jun-12 04:30N 46°29' E 030°45'0 0.0
2018-Jun-12 04:00N 46°29' E 030°45'0 0.0
2018-Jun-12 03:30N 46°29' E 030°45'0 0.0
2018-Jun-12 03:00N 46°29' E 030°45'0 0.0
2018-Jun-12 02:30N 46°29' E 030°45'0 0.0
2018-Jun-12 02:00N 46°29' E 030°45'0 0.0
2018-Jun-12 01:30N 46°29' E 030°45'0 0.0
2018-Jun-12 01:00N 46°29' E 030°45'0 0.0
2018-Jun-12 00:30N 46°29' E 030°45'0 0.0
2018-Jun-12 00:00N 46°29' E 030°45'0 0.0
2018-Jun-11 23:30N 46°29' E 030°45'0 0.0
2018-Jun-11 23:00N 46°29' E 030°45'0 0.0
2018-Jun-11 22:30N 46°29' E 030°45'0 0.0
2018-Jun-11 22:00N 46°29' E 030°45'0 0.0
2018-Jun-11 21:30N 46°29' E 030°45'0 0.0
2018-Jun-11 21:00N 46°29' E 030°45'0 0.0
2018-Jun-11 20:30N 46°29' E 030°45'0 0.0
2018-Jun-11 20:00N 46°29' E 030°45'0 0.0
2018-Jun-11 19:28N 46°29' E 030°45'0 0.0
2018-Jun-11 19:00N 46°29' E 030°45'0 0.0
2018-Jun-11 18:30N 46°29' E 030°45'0 0.0
2018-Jun-11 18:00N 46°29' E 030°45'0 0.0
2018-Jun-11 17:30N 46°29' E 030°45'0 0.0
2018-Jun-11 17:00N 46°29' E 030°45'0 0.0
2018-Jun-11 16:30N 46°29' E 030°45'0 0.0
2018-Jun-11 16:00N 46°29' E 030°45'0 0.0
2018-Jun-11 15:30N 46°29' E 030°45'0 0.0
2018-Jun-11 15:00N 46°29' E 030°45'0 0.0
2018-Jun-11 14:30N 46°29' E 030°45'0 0.0
2018-Jun-11 14:00N 46°29' E 030°45'0 0.0
2018-Jun-11 13:30N 46°29' E 030°45'0 0.0
2018-Jun-11 13:00N 46°29' E 030°45'0 0.0
2018-Jun-11 12:30N 46°29' E 030°45'0 0.0
2018-Jun-11 12:00N 46°29' E 030°45'0 0.0
2018-Jun-11 11:30N 46°29' E 030°45'0 0.0
2018-Jun-11 11:00N 46°29' E 030°45'0 0.0
2018-Jun-11 10:30N 46°29' E 030°45'0 0.0
2018-Jun-11 10:00N 46°29' E 030°45'0 0.0
2018-Jun-11 09:30N 46°29' E 030°45'0 0.0
2018-Jun-11 09:00N 46°29' E 030°45'0 0.0
2018-Jun-11 08:30N 46°29' E 030°45'0 0.0
2018-Jun-11 08:00N 46°29' E 030°45'0 0.0
2018-Jun-11 07:30N 46°29' E 030°45'0 0.0
2018-Jun-11 07:00N 46°29' E 030°45'0 0.0
2018-Jun-11 06:30N 46°29' E 030°45'0 0.0
2018-Jun-11 06:00N 46°29' E 030°45'0 0.0
2018-Jun-11 05:30N 46°29' E 030°45'0 0.0
2018-Jun-11 05:00N 46°29' E 030°45'0 0.0
2018-Jun-11 04:30N 46°29' E 030°45'0 0.0
2018-Jun-11 04:00N 46°29' E 030°45'0 0.0
2018-Jun-11 03:30N 46°29' E 030°45'0 0.0
2018-Jun-11 03:00N 46°29' E 030°45'0 0.0
2018-Jun-11 02:30N 46°29' E 030°45'0 0.0
2018-Jun-11 02:00N 46°29' E 030°45'0 0.0
2018-Jun-11 01:30N 46°29' E 030°45'0 0.0
2018-Jun-11 01:00N 46°29' E 030°45'0 0.0
2018-Jun-11 00:30N 46°29' E 030°45'0 0.0
2018-Jun-11 00:00N 46°29' E 030°45'0 0.0
2018-Jun-10 23:30N 46°29' E 030°45'0 0.0
2018-Jun-10 23:00N 46°29' E 030°45'0 0.0
2018-Jun-10 22:29N 46°29' E 030°45'0 0.0
2018-Jun-10 22:00N 46°29' E 030°45'0 0.0
2018-Jun-10 21:29N 46°29' E 030°45'0 0.0
2018-Jun-10 21:00N 46°29' E 030°45'0 0.0
2018-Jun-10 20:30N 46°29' E 030°45'0 0.0
2018-Jun-10 20:00N 46°29' E 030°45'0 0.0
2018-Jun-10 19:30N 46°29' E 030°45'0 0.0
2018-Jun-10 19:00N 46°29' E 030°45'0 0.0
2018-Jun-10 18:30N 46°29' E 030°45'0 0.0
2018-Jun-10 18:00N 46°29' E 030°45'0 0.0
2018-Jun-10 17:30N 46°29' E 030°45'0 0.0
2018-Jun-10 17:00N 46°29' E 030°45'0 0.0
2018-Jun-10 16:30N 46°29' E 030°45'0 0.0
2018-Jun-10 16:00N 46°29' E 030°45'0 0.0
2018-Jun-10 15:30N 46°29' E 030°45'0 0.0
2018-Jun-10 15:00N 46°29' E 030°45'0 0.0
2018-Jun-10 14:30N 46°29' E 030°45'0 0.0
2018-Jun-10 13:30N 46°29' E 030°45'0 0.1
2018-Jun-10 13:00N 46°29' E 030°45'0 0.0
2018-Jun-10 12:30N 46°29' E 030°45'0 0.0
2018-Jun-10 12:00N 46°29' E 030°45'0 0.0
2018-Jun-10 11:30N 46°29' E 030°45'0 0.0
2018-Jun-10 11:00N 46°29' E 030°45'0 0.0
2018-Jun-10 10:30N 46°29' E 030°45'0 0.0
2018-Jun-10 10:00N 46°29' E 030°45'0 0.0
2018-Jun-10 09:29N 46°29' E 030°45'0 0.0
2018-Jun-10 09:00N 46°29' E 030°45'0 0.0
2018-Jun-10 08:30N 46°29' E 030°45'0 0.0
2018-Jun-10 08:00N 46°29' E 030°45'0 0.0
2018-Jun-10 07:30N 46°29' E 030°45'0 0.0
2018-Jun-10 07:00N 46°29' E 030°45'0 0.0
2018-Jun-10 06:30N 46°29' E 030°45'0 0.0
2018-Jun-10 06:00N 46°29' E 030°45'0 0.0
2018-Jun-10 05:30N 46°29' E 030°45'0 0.0
2018-Jun-10 05:00N 46°29' E 030°45'0 0.0
2018-Jun-10 04:30N 46°29' E 030°45'0 0.0
2018-Jun-10 04:00N 46°29' E 030°45'0 0.0
2018-Jun-10 03:30N 46°29' E 030°45'0 0.0
2018-Jun-10 03:00N 46°29' E 030°45'0 0.0
2018-Jun-10 02:30N 46°29' E 030°45'0 0.0
2018-Jun-10 02:00N 46°29' E 030°45'0 0.0
2018-Jun-10 01:30N 46°29' E 030°45'0 0.0
2018-Jun-10 01:00N 46°29' E 030°45'0 0.0
2018-Jun-10 00:30N 46°29' E 030°45'0 0.0
2018-Jun-10 00:00N 46°29' E 030°45'0 0.0
2018-Jun-09 23:30N 46°29' E 030°45'0 0.0
2018-Jun-09 23:00N 46°29' E 030°45'0 0.0
2018-Jun-09 22:30N 46°29' E 030°45'0 0.0
2018-Jun-09 21:59N 46°29' E 030°45'0 0.1
2018-Jun-09 21:30N 46°29' E 030°45'0 0.0
2018-Jun-09 21:00N 46°29' E 030°45'0 0.0
2018-Jun-09 20:30N 46°29' E 030°45'0 0.0
2018-Jun-09 20:00N 46°29' E 030°45'0 0.0
2018-Jun-09 19:30N 46°29' E 030°45'0 0.0
2018-Jun-09 19:00N 46°29' E 030°45'0 0.0
2018-Jun-09 18:30N 46°29' E 030°45'0 0.1
2018-Jun-09 18:00N 46°29' E 030°45'0 0.1
2018-Jun-09 17:30N 46°29' E 030°45'0 0.0
2018-Jun-09 17:00N 46°29' E 030°45'0 0.0
2018-Jun-09 16:30N 46°29' E 030°45'0 0.0
2018-Jun-09 16:00N 46°29' E 030°45'0 0.0
2018-Jun-09 15:30N 46°29' E 030°45'0 0.0
2018-Jun-09 14:30N 46°29' E 030°45'0 0.0
2018-Jun-09 14:00N 46°29' E 030°45'0 0.0
2018-Jun-09 13:30N 46°29' E 030°45'0 0.0
2018-Jun-09 13:00N 46°29' E 030°45'0 0.0
2018-Jun-09 12:30N 46°29' E 030°45'0 0.0
2018-Jun-09 11:59N 46°29' E 030°45'0 0.0
2018-Jun-09 11:30N 46°29' E 030°45'0 0.0
2018-Jun-09 11:00N 46°29' E 030°45'0 0.0
2018-Jun-09 10:30N 46°29' E 030°45'0 0.0
2018-Jun-09 10:00N 46°29' E 030°45'0 0.0
2018-Jun-09 09:30N 46°29' E 030°45'0 0.0
2018-Jun-09 09:00N 46°29' E 030°45'0 0.0
2018-Jun-09 08:30N 46°29' E 030°45'0 0.0
2018-Jun-09 08:00N 46°29' E 030°45'0 0.0
2018-Jun-09 07:30N 46°29' E 030°45'0 0.0
2018-Jun-09 07:00N 46°29' E 030°45'0 0.0
2018-Jun-09 06:30N 46°29' E 030°45'0 0.0
2018-Jun-09 06:00N 46°29' E 030°45'0 0.0
2018-Jun-09 05:30N 46°29' E 030°45'0 0.0
2018-Jun-09 05:00N 46°29' E 030°45'0 0.0
2018-Jun-09 04:30N 46°29' E 030°45'0 0.0
2018-Jun-09 04:00N 46°29' E 030°45'0 0.0
2018-Jun-09 03:30N 46°29' E 030°45'0 0.0
2018-Jun-09 03:00N 46°29' E 030°45'0 0.0
2018-Jun-09 02:30N 46°29' E 030°45'0 0.0
2018-Jun-09 02:00N 46°29' E 030°45'0 0.0
2018-Jun-09 01:30N 46°29' E 030°45'0 0.0
2018-Jun-09 01:00N 46°29' E 030°45'0 0.0
2018-Jun-09 00:30N 46°29' E 030°45'0 0.0
2018-Jun-09 00:00N 46°29' E 030°45'0 0.0
2018-Jun-08 23:30N 46°29' E 030°45'0 0.0
2018-Jun-08 23:00N 46°29' E 030°45'0 0.0
2018-Jun-08 22:30N 46°29' E 030°45'0 0.0
2018-Jun-08 22:00N 46°29' E 030°45'0 0.0
2018-Jun-08 21:30N 46°29' E 030°45'0 0.0
2018-Jun-08 21:00N 46°29' E 030°45'0 0.0
2018-Jun-08 20:30N 46°29' E 030°45'0 0.0
2018-Jun-08 20:00N 46°29' E 030°45'0 0.0
2018-Jun-08 19:30N 46°29' E 030°45'0 0.0
2018-Jun-08 19:00N 46°29' E 030°45'0 0.0
2018-Jun-08 18:30N 46°29' E 030°45'0 0.0
2018-Jun-08 18:00N 46°29' E 030°45'1 1.2
2018-Jun-08 17:30N 46°30' E 030°45'1 1.2
2018-Jun-08 17:00N 46°29' E 030°45'0 0.0
2018-Jun-08 16:30N 46°29' E 030°45'0 0.0
2018-Jun-08 16:00N 46°29' E 030°45'0 0.0
2018-Jun-08 15:31N 46°29' E 030°45'0 0.0
2018-Jun-08 15:01N 46°29' E 030°45'0 0.0
2018-Jun-08 14:31N 46°29' E 030°45'0 0.0
2018-Jun-08 14:00N 46°29' E 030°45'0 0.0
2018-Jun-08 13:30N 46°29' E 030°45'0 0.0
2018-Jun-08 13:01N 46°29' E 030°45'0 0.0
2018-Jun-08 12:30N 46°29' E 030°45'0 0.0
2018-Jun-08 12:00N 46°29' E 030°45'0 0.0
2018-Jun-08 11:31N 46°29' E 030°45'0 0.0
2018-Jun-08 11:00N 46°29' E 030°45'0 0.0
2018-Jun-08 10:31N 46°29' E 030°45'0 0.0
2018-Jun-08 10:00N 46°29' E 030°45'0 0.0
2018-Jun-08 09:30N 46°29' E 030°45'0 0.0
2018-Jun-08 09:01N 46°29' E 030°45'0 0.0
2018-Jun-08 08:30N 46°29' E 030°45'0 0.0
2018-Jun-08 08:01N 46°29' E 030°45'0 0.0
2018-Jun-08 07:30N 46°29' E 030°45'0 0.0
2018-Jun-08 07:00N 46°29' E 030°45'0 0.0
2018-Jun-08 06:30N 46°29' E 030°45'0 0.0
2018-Jun-08 06:00N 46°29' E 030°45'0 0.0
2018-Jun-08 05:31N 46°29' E 030°45'0 0.0
2018-Jun-08 05:01N 46°29' E 030°45'0 0.0
2018-Jun-08 04:30N 46°29' E 030°45'0 0.0
2018-Jun-08 04:00N 46°29' E 030°45'0 0.0
2018-Jun-08 03:30N 46°29' E 030°45'0 0.0
2018-Jun-08 03:00N 46°29' E 030°45'0 0.0
2018-Jun-08 02:29N 46°29' E 030°45'0 0.0
2018-Jun-08 02:01N 46°29' E 030°45'0 0.0
2018-Jun-08 01:30N 46°29' E 030°45'0 0.0
2018-Jun-08 01:01N 46°29' E 030°45'0 0.0
2018-Jun-08 00:30N 46°29' E 030°45'0 0.0
2018-Jun-08 00:00N 46°29' E 030°45'0 0.1
2018-Jun-07 23:30N 46°29' E 030°45'0 0.0
2018-Jun-07 23:01N 46°29' E 030°45'0 0.0
2018-Jun-07 22:30N 46°29' E 030°45'0 0.0
2018-Jun-07 22:00N 46°29' E 030°45'0 0.1
2018-Jun-07 21:30N 46°29' E 030°45'0 0.1
2018-Jun-07 21:00N 46°29' E 030°45'0 0.0
2018-Jun-07 20:30N 46°29' E 030°45'0 0.0
2018-Jun-07 20:00N 46°29' E 030°45'0 0.0
2018-Jun-07 19:30N 46°29' E 030°45'0 0.0
2018-Jun-07 19:00N 46°29' E 030°45'0 0.0
2018-Jun-07 18:31N 46°29' E 030°45'0 0.0
2018-Jun-07 18:00N 46°29' E 030°45'0 0.0
2018-Jun-07 17:30N 46°29' E 030°45'0 0.0
2018-Jun-07 17:00N 46°29' E 030°45'0 0.0
2018-Jun-07 16:30N 46°29' E 030°45'0 0.0
2018-Jun-07 16:01N 46°29' E 030°45'0 0.0
2018-Jun-07 15:30N 46°29' E 030°45'0 0.0
2018-Jun-07 15:00N 46°29' E 030°45'0 0.0
2018-Jun-07 14:30N 46°29' E 030°45'0 0.0
2018-Jun-07 14:00N 46°29' E 030°45'0 0.0
2018-Jun-07 13:31N 46°29' E 030°45'0 0.0
2018-Jun-07 13:01N 46°29' E 030°45'0 0.0
2018-Jun-07 12:31N 46°29' E 030°45'0 0.0
2018-Jun-07 12:00N 46°29' E 030°45'0 0.0
2018-Jun-07 11:30N 46°29' E 030°45'0 0.0
2018-Jun-07 11:01N 46°29' E 030°45'0 0.0
2018-Jun-07 10:30N 46°29' E 030°45'0 0.0
2018-Jun-07 10:00N 46°29' E 030°45'0 0.0
2018-Jun-07 09:30N 46°29' E 030°45'0 0.0
2018-Jun-07 09:01N 46°29' E 030°45'0 0.0
2018-Jun-07 08:31N 46°29' E 030°45'0 0.0
2018-Jun-07 08:00N 46°29' E 030°45'0 0.0
2018-Jun-07 07:30N 46°29' E 030°45'0 0.0
2018-Jun-07 06:59N 46°29' E 030°45'0 0.0
2018-Jun-07 06:30N 46°29' E 030°45'0 0.0
2018-Jun-07 06:01N 46°29' E 030°45'0 0.0
2018-Jun-07 05:31N 46°29' E 030°45'0 0.0
2018-Jun-07 05:00N 46°29' E 030°45'0 0.0
2018-Jun-07 04:30N 46°29' E 030°45'0 0.0
2018-Jun-07 04:00N 46°29' E 030°45'0 0.0
2018-Jun-07 03:30N 46°29' E 030°45'0 0.0
2018-Jun-07 03:01N 46°29' E 030°45'0 0.0
2018-Jun-07 02:30N 46°29' E 030°45'0 0.0
2018-Jun-07 02:00N 46°29' E 030°45'0 0.0
2018-Jun-07 01:30N 46°29' E 030°45'0 0.0
2018-Jun-07 01:00N 46°29' E 030°45'0 0.0
2018-Jun-07 00:30N 46°29' E 030°45'0 0.0
2018-Jun-07 00:00N 46°29' E 030°45'0 0.0
2018-Jun-06 23:31N 46°29' E 030°45'0 0.0
2018-Jun-06 23:00N 46°29' E 030°45'0 0.0
2018-Jun-06 22:31N 46°29' E 030°45'0 0.0
2018-Jun-06 22:01N 46°29' E 030°45'0 0.0
2018-Jun-06 21:31N 46°29' E 030°45'0 0.0
2018-Jun-06 21:01N 46°29' E 030°45'0 0.0
2018-Jun-06 20:31N 46°29' E 030°45'0 0.0
2018-Jun-06 20:01N 46°29' E 030°45'0 0.0
2018-Jun-06 19:30N 46°29' E 030°45'0 0.0
2018-Jun-06 19:01N 46°29' E 030°45'0 0.0
2018-Jun-06 18:30N 46°29' E 030°45'0 0.0
2018-Jun-06 18:00N 46°29' E 030°45'0 0.0
2018-Jun-06 17:30N 46°29' E 030°45'0 0.0
2018-Jun-06 17:00N 46°29' E 030°45'0 0.0
2018-Jun-06 16:30N 46°29' E 030°45'0 0.0
2018-Jun-06 16:00N 46°29' E 030°45'0 0.0
2018-Jun-06 15:30N 46°29' E 030°45'0 0.0
2018-Jun-06 15:00N 46°29' E 030°45'0 0.0
2018-Jun-06 14:30N 46°29' E 030°45'0 0.0
2018-Jun-06 14:01N 46°29' E 030°45'0 0.0
2018-Jun-06 13:30N 46°29' E 030°45'0 0.0
2018-Jun-06 13:01N 46°29' E 030°45'0 0.0
2018-Jun-06 12:30N 46°29' E 030°45'0 0.0
2018-Jun-06 12:01N 46°29' E 030°45'0 0.0
2018-Jun-06 11:30N 46°29' E 030°45'0 0.0
2018-Jun-06 11:01N 46°29' E 030°45'0 0.0
2018-Jun-06 10:31N 46°29' E 030°45'0 0.0
2018-Jun-06 10:01N 46°29' E 030°45'0 0.0
2018-Jun-06 09:30N 46°29' E 030°45'0 0.0
2018-Jun-06 09:00N 46°29' E 030°45'0 0.0
2018-Jun-06 08:30N 46°29' E 030°45'0 0.0
2018-Jun-06 08:00N 46°29' E 030°45'0 0.0
2018-Jun-06 07:30N 46°29' E 030°45'0 0.0
2018-Jun-06 07:01N 46°29' E 030°45'0 0.0
2018-Jun-06 06:30N 46°29' E 030°45'0 0.0
2018-Jun-06 06:00N 46°29' E 030°45'0 0.0
2018-Jun-06 05:31N 46°29' E 030°45'0 0.0
2018-Jun-06 05:00N 46°29' E 030°45'0 0.0
2018-Jun-06 04:30N 46°29' E 030°45'0 0.0
2018-Jun-06 04:00N 46°29' E 030°45'0 0.0
2018-Jun-06 03:31N 46°29' E 030°45'0 0.0
2018-Jun-06 03:00N 46°29' E 030°45'0 0.0
2018-Jun-06 02:30N 46°29' E 030°45'0 0.0
2018-Jun-06 02:00N 46°29' E 030°45'0 0.0
2018-Jun-06 01:31N 46°29' E 030°45'0 0.0
2018-Jun-06 01:00N 46°29' E 030°45'0 0.0
2018-Jun-06 00:30N 46°29' E 030°45'0 0.0
2018-Jun-06 00:00N 46°29' E 030°45'0 0.0
2018-Jun-05 23:31N 46°29' E 030°45'0 0.0
2018-Jun-05 23:00N 46°29' E 030°45'0 0.0
2018-Jun-05 22:31N 46°29' E 030°45'0 0.0
2018-Jun-05 22:00N 46°29' E 030°45'0 0.0
2018-Jun-05 21:30N 46°29' E 030°45'0 0.0
2018-Jun-05 21:00N 46°29' E 030°45'0 0.0
2018-Jun-05 20:30N 46°29' E 030°45'0 0.0
2018-Jun-05 20:00N 46°29' E 030°45'0 0.0
2018-Jun-05 19:30N 46°29' E 030°45'0 0.0
2018-Jun-05 19:00N 46°29' E 030°45'0 0.0
2018-Jun-05 18:30N 46°29' E 030°45'0 0.0
2018-Jun-05 18:00N 46°29' E 030°45'0 0.0
2018-Jun-05 17:31N 46°29' E 030°45'0 0.0
2018-Jun-05 17:00N 46°29' E 030°45'0 0.0
2018-Jun-05 16:31N 46°29' E 030°45'0 0.0
2018-Jun-05 16:00N 46°29' E 030°45'0 0.0
2018-Jun-05 15:30N 46°29' E 030°45'0 0.0
2018-Jun-05 15:01N 46°29' E 030°45'0 0.0
2018-Jun-05 14:29N 46°29' E 030°45'0 0.0
2018-Jun-05 14:00N 46°29' E 030°45'0 0.0
2018-Jun-05 13:31N 46°29' E 030°45'0 0.0
2018-Jun-05 13:00N 46°29' E 030°45'0 0.0
2018-Jun-05 12:31N 46°29' E 030°45'0 0.0
2018-Jun-05 12:01N 46°29' E 030°45'0 0.0
2018-Jun-05 11:31N 46°29' E 030°45'0 0.0
2018-Jun-05 11:00N 46°29' E 030°45'0 0.0
2018-Jun-05 10:31N 46°29' E 030°45'0 0.0
2018-Jun-05 10:00N 46°29' E 030°45'0 0.0
2018-Jun-05 09:30N 46°29' E 030°45'0 0.0
2018-Jun-05 09:00N 46°29' E 030°45'0 0.0
2018-Jun-05 08:30N 46°29' E 030°45'0 0.0
2018-Jun-05 08:01N 46°29' E 030°45'0 0.0
2018-Jun-05 07:31N 46°29' E 030°45'0 0.0
2018-Jun-05 07:00N 46°29' E 030°45'0 0.0
2018-Jun-05 06:30N 46°29' E 030°45'0 0.0
2018-Jun-05 06:00N 46°29' E 030°45'0 0.0
2018-Jun-05 05:31N 46°29' E 030°45'0 0.0
2018-Jun-05 05:01N 46°29' E 030°45'0 0.0
2018-Jun-05 04:31N 46°29' E 030°45'0 0.0
2018-Jun-05 04:00N 46°29' E 030°45'0 0.0
2018-Jun-05 03:30N 46°29' E 030°45'0 0.0
2018-Jun-05 03:00N 46°29' E 030°45'0 0.0
2018-Jun-05 02:30N 46°29' E 030°45'  

Dump ship's entire track history